createdAt,value
2018-07-10T00:02:15.833Z,13.00
2018-07-10T00:05:34.055Z,13.10
2018-07-10T00:10:21.290Z,13.10
2018-07-10T00:12:49.676Z,13.10
2018-07-10T00:15:18.053Z,13.10
2018-07-10T00:17:46.446Z,13.10
2018-07-10T00:20:14.808Z,13.20
2018-07-10T00:22:43.179Z,13.20
2018-07-10T00:25:11.513Z,13.20
2018-07-10T00:27:39.947Z,13.20
2018-07-10T00:30:08.315Z,13.20
2018-07-10T00:32:36.870Z,13.20
2018-07-10T00:35:05.262Z,13.20
2018-07-10T00:37:33.717Z,13.20
2018-07-10T00:40:02.251Z,13.30
2018-07-10T00:42:30.774Z,13.30
2018-07-10T00:44:59.189Z,13.30
2018-07-10T00:47:27.548Z,13.30
2018-07-10T00:49:55.912Z,13.30
2018-07-10T00:52:30.802Z,13.30
2018-07-10T00:54:59.962Z,13.30
2018-07-10T00:57:29.332Z,13.30
2018-07-10T00:59:57.713Z,13.30
2018-07-10T01:02:26.129Z,13.20
2018-07-10T01:04:54.582Z,13.20
2018-07-10T01:07:23.376Z,13.20
2018-07-10T01:12:19.872Z,13.10
2018-07-10T01:14:48.311Z,13.10
2018-07-10T01:17:16.825Z,13.10
2018-07-10T01:19:45.206Z,13.00
2018-07-10T01:22:13.670Z,13.00
2018-07-10T01:24:42.074Z,13.00
2018-07-10T01:27:10.473Z,13.00
2018-07-10T01:29:44.265Z,13.00
2018-07-10T01:32:12.665Z,13.00
2018-07-10T01:34:41.146Z,12.90
2018-07-10T01:37:09.535Z,12.90
2018-07-10T01:39:37.867Z,12.90
2018-07-10T01:42:06.313Z,12.90
2018-07-10T01:44:34.685Z,12.80
2018-07-10T01:47:03.092Z,12.80
2018-07-10T01:49:31.495Z,12.80
2018-07-10T01:51:59.924Z,12.80
2018-07-10T01:54:28.312Z,12.80
2018-07-10T01:56:56.689Z,12.80
2018-07-10T01:59:25.059Z,12.80
2018-07-10T02:01:53.429Z,12.70
2018-07-10T02:04:21.829Z,12.70
2018-07-10T02:06:50.166Z,12.70
2018-07-10T02:09:18.552Z,12.70
2018-07-10T02:11:46.998Z,12.60
2018-07-10T02:14:15.388Z,12.60
2018-07-10T02:16:43.794Z,12.50
2018-07-10T02:19:12.688Z,12.50
2018-07-10T02:24:09.237Z,12.40
2018-07-10T02:26:37.724Z,12.30
2018-07-10T02:29:06.134Z,12.30
2018-07-10T02:31:34.485Z,12.20
2018-07-10T02:34:02.852Z,12.20
2018-07-10T02:36:31.269Z,12.20
2018-07-10T02:39:00.385Z,12.20
2018-07-10T02:41:28.816Z,12.10
2018-07-10T02:44:01.271Z,12.10
2018-07-10T02:46:31.627Z,12.10
2018-07-10T02:49:09.455Z,12.20
2018-07-10T02:51:41.134Z,12.20
2018-07-10T02:54:14.617Z,12.20
2018-07-10T02:56:43.510Z,12.20
2018-07-10T02:59:11.814Z,12.20
2018-07-10T03:01:40.090Z,12.20
2018-07-10T03:04:08.445Z,12.20
2018-07-10T03:06:36.718Z,12.30
2018-07-10T03:09:05.785Z,12.30
2018-07-10T03:11:34.979Z,12.30
2018-07-10T03:14:05.136Z,12.30
2018-07-10T03:16:33.470Z,12.30
2018-07-10T03:19:01.799Z,12.40
2018-07-10T03:21:30.066Z,12.40
2018-07-10T03:23:58.389Z,12.40
2018-07-10T03:26:26.705Z,12.40
2018-07-10T03:28:54.999Z,12.40
2018-07-10T03:31:23.301Z,12.40
2018-07-10T03:33:51.634Z,12.50
2018-07-10T03:36:19.938Z,12.40
2018-07-10T03:38:48.267Z,12.50
2018-07-10T03:41:16.610Z,12.50
2018-07-10T03:43:44.862Z,12.50
2018-07-10T03:46:13.202Z,12.50
2018-07-10T03:48:41.519Z,12.50
2018-07-10T03:51:11.291Z,12.50
2018-07-10T03:53:39.590Z,12.50
2018-07-10T03:56:07.853Z,12.50
2018-07-10T03:58:36.369Z,12.60
2018-07-10T04:01:04.626Z,12.50
2018-07-10T04:03:34.106Z,12.60
2018-07-10T04:06:03.530Z,12.50
2018-07-10T04:08:31.817Z,12.60
2018-07-10T04:11:01.000Z,12.50
2018-07-10T04:13:29.281Z,12.60
2018-07-10T04:15:59.202Z,12.60
2018-07-10T04:18:27.965Z,12.60
2018-07-10T04:21:07.305Z,12.60
2018-07-10T04:23:38.440Z,12.60
2018-07-10T04:26:19.356Z,12.60
2018-07-10T04:28:55.785Z,12.60
2018-07-10T04:31:33.515Z,12.60
2018-07-10T04:34:01.957Z,12.70
2018-07-10T04:36:30.241Z,12.70
2018-07-10T04:38:59.069Z,12.70
2018-07-10T04:41:31.809Z,12.70
2018-07-10T04:44:14.845Z,12.70
2018-07-10T04:46:45.567Z,12.80
2018-07-10T04:49:33.394Z,12.80
2018-07-10T04:52:12.129Z,12.80
2018-07-10T04:54:52.037Z,12.80
2018-07-10T04:57:25.193Z,12.80
2018-07-10T04:59:53.473Z,12.80
2018-07-10T05:04:51.513Z,12.80
2018-07-10T05:07:19.766Z,12.90
2018-07-10T05:09:48.102Z,12.80
2018-07-10T05:12:16.452Z,12.80
2018-07-10T05:14:46.402Z,12.80
2018-07-10T05:17:15.565Z,12.80
2018-07-10T05:19:43.900Z,12.90
2018-07-10T05:22:12.333Z,12.90
2018-07-10T05:24:40.630Z,12.90
2018-07-10T05:27:08.913Z,13.00
2018-07-10T05:29:37.194Z,13.00
2018-07-10T05:32:05.529Z,13.00
2018-07-10T05:34:34.854Z,13.00
2018-07-10T05:37:04.336Z,13.10
2018-07-10T05:39:34.689Z,13.10
2018-07-10T05:42:02.966Z,13.10
2018-07-10T05:44:31.773Z,13.10
2018-07-10T05:47:02.761Z,13.20
2018-07-10T05:49:36.673Z,13.30
2018-07-10T05:52:04.969Z,13.30
2018-07-10T05:54:33.262Z,13.40
2018-07-10T05:57:01.597Z,13.40
2018-07-10T05:59:29.893Z,13.50
2018-07-10T06:01:58.169Z,13.50
2018-07-10T06:04:26.525Z,13.60
2018-07-10T06:06:54.776Z,13.60
2018-07-10T06:09:23.054Z,13.60
2018-07-10T06:11:51.294Z,13.50
2018-07-10T06:14:19.558Z,13.50
2018-07-10T06:16:47.946Z,13.50
2018-07-10T06:19:16.617Z,13.50
2018-07-10T06:21:47.586Z,13.50
2018-07-10T06:24:17.602Z,13.50
2018-07-10T06:26:49.310Z,13.50
2018-07-10T06:29:20.956Z,13.50
2018-07-10T06:31:52.423Z,13.50
2018-07-10T06:34:26.107Z,13.60
2018-07-10T06:37:02.904Z,13.60
2018-07-10T06:39:31.213Z,13.70
2018-07-10T06:42:11.867Z,13.80
2018-07-10T06:44:40.206Z,13.90
2018-07-10T06:47:14.359Z,14.00
2018-07-10T06:49:42.674Z,14.00
2018-07-10T06:54:56.989Z,14.00
2018-07-10T06:57:31.131Z,14.00
2018-07-10T07:00:06.506Z,14.00
2018-07-10T07:02:39.345Z,14.00
2018-07-10T07:05:07.910Z,14.00
2018-07-10T07:07:37.508Z,14.00
2018-07-10T07:10:07.066Z,14.00
2018-07-10T07:12:36.033Z,14.10
2018-07-10T07:15:06.351Z,14.20
2018-07-10T07:17:35.377Z,14.30
2018-07-10T07:20:03.706Z,14.40
2018-07-10T07:25:00.725Z,14.60
2018-07-10T07:27:29.298Z,14.60
2018-07-10T07:29:57.777Z,14.70
2018-07-10T07:32:26.381Z,14.70
2018-07-10T07:34:54.747Z,14.70
2018-07-10T07:37:23.249Z,14.80
2018-07-10T07:39:51.625Z,14.80
2018-07-10T07:42:19.925Z,15.00
2018-07-10T07:44:49.537Z,15.10
2018-07-10T07:47:20.229Z,15.30
2018-07-10T07:49:48.819Z,15.50
2018-07-10T07:52:17.278Z,15.70
2018-07-10T07:54:45.553Z,15.90
2018-07-10T07:57:14.261Z,16.10
2018-07-10T07:59:42.629Z,16.30
2018-07-10T08:02:10.933Z,16.50
2018-07-10T08:04:39.226Z,16.60
2018-07-10T08:07:07.605Z,16.60
2018-07-10T08:09:35.911Z,16.60
2018-07-10T08:12:04.303Z,16.60
2018-07-10T08:14:32.643Z,16.50
2018-07-10T08:17:00.970Z,16.50
2018-07-10T08:19:29.245Z,16.50
2018-07-10T08:21:57.634Z,16.60
2018-07-10T08:24:25.982Z,16.80
2018-07-10T08:26:57.261Z,16.80
2018-07-10T08:29:26.258Z,16.80
2018-07-10T08:31:54.916Z,16.80
2018-07-10T08:34:24.750Z,16.80
2018-07-10T08:36:53.317Z,16.80
2018-07-10T08:39:21.701Z,16.80
2018-07-10T08:41:50.030Z,16.90
2018-07-10T08:44:19.098Z,17.00
2018-07-10T08:46:49.672Z,17.00
2018-07-10T08:49:18.057Z,17.10
2018-07-10T08:51:49.922Z,17.10
2018-07-10T08:54:19.673Z,17.20
2018-07-10T08:56:48.074Z,17.20
2018-07-10T08:59:17.721Z,17.30
2018-07-10T09:01:49.735Z,17.30
2018-07-10T09:04:18.795Z,17.40
2018-07-10T09:06:47.439Z,17.50
2018-07-10T09:09:16.639Z,17.60
2018-07-10T09:11:45.014Z,17.70
2018-07-10T09:14:14.662Z,17.80
2018-07-10T09:16:43.298Z,18.00
2018-07-10T09:19:14.143Z,18.10
2018-07-10T09:21:46.112Z,18.20
2018-07-10T09:24:14.425Z,18.20
2018-07-10T09:26:42.730Z,18.20
2018-07-10T09:29:11.042Z,18.10
2018-07-10T09:31:39.728Z,18.10
2018-07-10T09:34:08.006Z,18.10
2018-07-10T09:36:36.294Z,18.10
2018-07-10T09:39:04.800Z,18.50
2018-07-10T09:41:33.889Z,19.10
2018-07-10T09:44:02.219Z,19.80
2018-07-10T09:46:30.962Z,20.40
2018-07-10T09:48:59.612Z,20.80
2018-07-10T09:51:27.954Z,21.20
2018-07-10T09:53:56.349Z,21.50
2018-07-10T09:56:24.809Z,21.40
2018-07-10T09:58:54.307Z,21.20
2018-07-10T10:01:26.841Z,20.90
2018-07-10T10:03:55.783Z,20.70
2018-07-10T10:06:24.682Z,20.60
2018-07-10T10:08:53.029Z,20.50
2018-07-10T10:11:21.371Z,20.50
2018-07-10T10:13:49.682Z,20.50
2018-07-10T10:16:18.042Z,20.50
2018-07-10T10:18:47.241Z,20.40
2018-07-10T10:21:15.537Z,20.20
2018-07-10T10:23:44.368Z,20.00
2018-07-10T10:26:14.004Z,19.80
2018-07-10T10:28:42.787Z,19.70
2018-07-10T10:31:11.113Z,19.60
2018-07-10T10:33:39.394Z,19.70
2018-07-10T10:36:07.670Z,19.90
2018-07-10T10:38:39.937Z,20.00
2018-07-10T10:43:36.630Z,20.10
2018-07-10T10:46:05.490Z,20.20
2018-07-10T10:48:33.837Z,20.50
2018-07-10T10:51:02.202Z,20.80
2018-07-10T10:53:30.707Z,21.20
2018-07-10T10:55:59.241Z,21.40
2018-07-10T10:58:27.550Z,21.50
2018-07-10T11:00:55.946Z,21.70
2018-07-10T11:03:24.293Z,21.80
2018-07-10T11:05:52.773Z,21.80
2018-07-10T11:08:22.684Z,21.80
2018-07-10T11:10:51.126Z,22.00
2018-07-10T11:13:19.690Z,22.10
2018-07-10T11:15:54.784Z,22.10
2018-07-10T11:18:44.774Z,22.30
2018-07-10T11:21:36.198Z,22.30
2018-07-10T11:24:05.084Z,22.50
2018-07-10T11:26:38.799Z,22.70
2018-07-10T11:29:07.678Z,22.80
2018-07-10T11:31:36.782Z,22.90
2018-07-10T11:34:05.666Z,23.00
2018-07-10T11:36:34.169Z,22.90
2018-07-10T11:39:07.384Z,22.90
2018-07-10T11:41:38.658Z,22.70
2018-07-10T11:44:08.449Z,22.50
2018-07-10T11:46:37.123Z,22.30
2018-07-10T11:49:05.554Z,22.20
2018-07-10T11:51:33.945Z,22.10
2018-07-10T11:54:02.601Z,22.10
2018-07-10T11:56:31.241Z,22.00
2018-07-10T11:58:59.717Z,22.10
2018-07-10T12:01:28.399Z,22.20
2018-07-10T12:03:57.273Z,22.50
2018-07-10T12:06:25.959Z,22.80
2018-07-10T12:08:56.001Z,23.00
2018-07-10T12:11:25.191Z,23.10
2018-07-10T12:13:53.675Z,23.40
2018-07-10T12:16:21.986Z,23.70
2018-07-10T12:18:50.275Z,23.70
2018-07-10T12:21:20.085Z,23.70
2018-07-10T12:23:48.520Z,23.60
2018-07-10T12:26:16.808Z,23.60
2018-07-10T12:28:45.222Z,23.70
2018-07-10T12:31:13.561Z,23.90
2018-07-10T12:33:41.921Z,24.40
2018-07-10T12:36:10.169Z,24.80
2018-07-10T12:38:38.528Z,24.90
2018-07-10T12:41:06.980Z,25.00
2018-07-10T12:43:35.342Z,25.00
2018-07-10T12:46:03.766Z,25.00
2018-07-10T12:48:32.249Z,25.10
2018-07-10T12:51:00.624Z,25.70
2018-07-10T12:53:28.953Z,26.30
2018-07-10T12:55:59.429Z,26.80
2018-07-10T12:58:28.495Z,27.30
2018-07-10T13:00:56.809Z,27.50
2018-07-10T13:03:25.081Z,27.50
2018-07-10T13:05:55.353Z,27.20
2018-07-10T13:08:23.638Z,27.00
2018-07-10T13:10:52.008Z,27.20
2018-07-10T13:13:20.280Z,27.60
2018-07-10T13:15:48.581Z,28.20
2018-07-10T13:18:19.678Z,28.70
2018-07-10T13:20:48.051Z,29.00
2018-07-10T13:23:16.324Z,28.80
2018-07-10T13:25:44.630Z,28.80
2018-07-10T13:28:13.196Z,29.00
2018-07-10T13:30:41.713Z,28.70
2018-07-10T13:33:10.181Z,28.20
2018-07-10T13:35:38.561Z,27.50
2018-07-10T13:38:07.145Z,26.80
2018-07-10T13:40:36.338Z,26.10
2018-07-10T13:43:04.750Z,25.50
2018-07-10T13:45:33.470Z,25.00
2018-07-10T13:48:01.994Z,24.50
2018-07-10T13:50:33.106Z,24.00
2018-07-10T13:53:02.390Z,23.40
2018-07-10T13:55:30.872Z,22.90
2018-07-10T13:58:05.577Z,22.50
2018-07-10T14:00:37.300Z,22.10
2018-07-10T14:03:05.715Z,21.80
2018-07-10T14:05:33.993Z,21.50
2018-07-10T14:08:02.398Z,21.30
2018-07-10T14:10:30.856Z,21.20
2018-07-10T14:12:59.522Z,21.20
2018-07-10T14:15:27.851Z,21.10
2018-07-10T14:17:57.286Z,21.00
2018-07-10T14:20:25.889Z,20.90
2018-07-10T14:22:54.177Z,20.90
2018-07-10T14:25:22.534Z,20.80
2018-07-10T14:27:50.957Z,20.80
2018-07-10T14:30:19.230Z,20.80
2018-07-10T14:32:47.817Z,20.60
2018-07-10T14:35:16.156Z,20.50
2018-07-10T14:37:44.481Z,20.50
2018-07-10T14:40:12.920Z,20.40
2018-07-10T14:42:41.220Z,20.30
2018-07-10T14:45:09.578Z,20.30
2018-07-10T14:47:38.372Z,20.20
2018-07-10T14:50:06.723Z,20.20
2018-07-10T14:52:35.138Z,20.10
2018-07-10T14:55:03.422Z,20.10
2018-07-10T14:57:31.801Z,20.10
2018-07-10T15:00:00.382Z,20.30
2018-07-10T15:02:28.773Z,20.40
2018-07-10T15:04:57.052Z,20.50
2018-07-10T15:07:25.409Z,20.40
2018-07-10T15:09:53.686Z,20.40
2018-07-10T15:12:21.950Z,20.30
2018-07-10T15:14:50.520Z,20.30
2018-07-10T15:19:29.554Z,20.30
2018-07-10T15:21:58.063Z,20.20
2018-07-10T15:24:26.373Z,20.10
2018-07-10T15:26:54.642Z,20.00
2018-07-10T15:29:28.226Z,20.00
2018-07-10T15:31:56.885Z,20.00
2018-07-10T15:34:25.193Z,20.10
2018-07-10T15:36:53.766Z,20.10
2018-07-10T15:39:22.525Z,20.10
2018-07-10T15:41:51.718Z,20.10
2018-07-10T15:44:19.942Z,20.10
2018-07-10T15:46:48.328Z,20.10
2018-07-10T15:49:16.636Z,20.10
2018-07-10T15:51:44.994Z,20.00
2018-07-10T15:54:13.396Z,20.00
2018-07-10T15:56:41.745Z,19.90
2018-07-10T15:59:10.081Z,20.00
2018-07-10T16:01:38.469Z,20.00
2018-07-10T16:04:07.031Z,20.00
2018-07-10T16:06:36.860Z,20.10
2018-07-10T16:09:07.253Z,20.10
2018-07-10T16:11:36.305Z,20.10
2018-07-10T16:14:04.647Z,20.10
2018-07-10T16:16:33.481Z,20.10
2018-07-10T16:19:05.549Z,20.20
2018-07-10T16:22:41.667Z,20.20
2018-07-10T16:25:21.229Z,20.20
2018-07-10T16:27:49.563Z,20.20
2018-07-10T16:30:23.864Z,20.20
2018-07-10T16:32:52.439Z,20.20
2018-07-10T16:35:23.850Z,20.10
2018-07-10T16:37:52.317Z,20.10
2018-07-10T16:40:26.171Z,20.10
2018-07-10T16:42:55.650Z,20.20
2018-07-10T16:45:32.258Z,20.10
2018-07-10T16:48:22.618Z,20.10
2018-07-10T16:51:08.276Z,20.10
2018-07-10T16:53:37.309Z,20.10
2018-07-10T16:56:05.765Z,20.10
2018-07-10T16:58:36.944Z,20.10
2018-07-10T17:01:05.697Z,20.10
2018-07-10T17:03:34.013Z,20.10
2018-07-10T17:06:02.585Z,20.10
2018-07-10T17:08:30.893Z,20.10
2018-07-10T17:10:59.204Z,20.10
2018-07-10T17:13:27.529Z,20.10
2018-07-10T17:15:55.864Z,20.20
2018-07-10T17:18:24.162Z,20.20
2018-07-10T17:20:52.531Z,20.20
2018-07-10T17:23:20.907Z,20.30
2018-07-10T17:25:49.233Z,20.30
2018-07-10T17:28:19.138Z,20.30
2018-07-10T17:30:47.528Z,20.40
2018-07-10T17:33:15.846Z,20.30
2018-07-10T17:35:44.145Z,20.30
2018-07-10T17:38:12.499Z,20.30
2018-07-10T17:40:40.914Z,20.20
2018-07-10T17:43:09.280Z,20.10
2018-07-10T17:45:37.678Z,20.00
2018-07-10T17:48:06.168Z,19.90
2018-07-10T17:50:34.485Z,19.80
2018-07-10T17:53:03.135Z,19.80
2018-07-10T17:55:31.586Z,19.70
2018-07-10T17:58:05.122Z,19.60
2018-07-10T18:00:34.030Z,19.60
2018-07-10T18:03:02.382Z,19.60
2018-07-10T18:05:30.742Z,19.50
2018-07-10T18:08:00.189Z,19.40
2018-07-10T18:10:28.573Z,19.30
2018-07-10T18:12:57.090Z,19.30
2018-07-10T18:15:25.468Z,19.20
2018-07-10T18:17:54.193Z,19.20
2018-07-10T18:25:18.602Z,19.00
2018-07-10T18:27:47.041Z,19.00
2018-07-10T18:30:15.330Z,18.90
2018-07-10T18:32:43.819Z,18.90
2018-07-10T18:35:12.118Z,18.90
2018-07-10T18:37:41.115Z,18.90
2018-07-10T18:40:09.359Z,18.80
2018-07-10T18:42:37.725Z,18.80
2018-07-10T18:45:06.142Z,18.70
2018-07-10T18:47:34.483Z,18.80
2018-07-10T18:50:03.642Z,18.70
2018-07-10T18:52:32.038Z,18.70
2018-07-10T18:55:01.054Z,18.70
2018-07-10T18:57:42.457Z,18.80
2018-07-10T19:00:10.800Z,18.80
2018-07-10T19:02:48.858Z,18.80
2018-07-10T19:05:17.168Z,18.70
2018-07-10T19:07:45.487Z,18.70
2018-07-10T19:10:13.790Z,18.70
2018-07-10T19:12:43.098Z,18.60
2018-07-10T19:15:11.469Z,18.60
2018-07-10T19:17:39.745Z,18.50
2018-07-10T19:20:09.941Z,18.50
2018-07-10T19:23:08.973Z,18.40
2018-07-10T19:25:37.413Z,18.40
2018-07-10T19:28:05.962Z,18.30
2018-07-10T19:30:45.652Z,18.30
2018-07-10T19:33:14.033Z,18.20
2018-07-10T19:35:42.852Z,18.10
2018-07-10T19:38:11.710Z,18.10
2018-07-10T19:40:40.007Z,18.00
2018-07-10T19:43:09.039Z,17.90
2018-07-10T19:45:37.396Z,17.80
2018-07-10T19:48:06.185Z,17.80
2018-07-10T19:50:38.594Z,17.70
2018-07-10T19:53:07.053Z,17.70
2018-07-10T19:55:37.386Z,17.60
2018-07-10T19:58:18.021Z,17.50
2018-07-10T20:00:50.902Z,17.50
2018-07-10T20:03:23.750Z,17.40
2018-07-10T20:05:52.917Z,17.30
2018-07-10T20:08:21.466Z,17.20
2018-07-10T20:13:42.424Z,17.10
2018-07-10T20:16:39.291Z,17.10
2018-07-10T20:20:12.193Z,17.00
2018-07-10T20:22:52.757Z,16.90
2018-07-10T20:27:43.245Z,16.90
2018-07-10T20:30:33.678Z,16.80
2018-07-10T20:33:12.037Z,16.70
2018-07-10T20:35:46.449Z,16.60
2018-07-10T20:38:15.016Z,16.60
2018-07-10T20:40:44.332Z,16.50
2018-07-10T20:43:15.153Z,16.50
2018-07-10T20:45:50.236Z,16.40
2018-07-10T20:49:28.025Z,16.40
2018-07-10T20:52:07.069Z,16.30
2018-07-10T20:54:55.601Z,16.20
2018-07-10T20:57:31.765Z,16.20
2018-07-10T21:00:07.998Z,16.10
2018-07-10T21:04:55.680Z,16.10
2018-07-10T21:07:27.312Z,16.00
2018-07-10T21:10:05.838Z,16.00
2018-07-10T21:12:36.169Z,15.90
2018-07-10T21:15:10.957Z,15.90
2018-07-10T21:17:52.586Z,15.80
2018-07-10T21:20:30.665Z,15.80
2018-07-10T21:23:44.913Z,15.80
2018-07-10T21:26:22.072Z,15.80
2018-07-10T21:28:53.358Z,15.70
2018-07-10T21:33:43.113Z,15.70
2018-07-10T21:36:16.790Z,15.70
2018-07-10T21:38:56.314Z,15.70
2018-07-10T21:41:36.616Z,15.60
2018-07-10T21:46:23.541Z,15.60
2018-07-10T21:52:23.834Z,15.50
2018-07-10T21:54:52.119Z,15.40
2018-07-10T21:57:24.098Z,15.30
2018-07-10T22:00:07.176Z,15.30
2018-07-10T22:02:35.634Z,15.30
2018-07-10T22:05:04.036Z,15.20
2018-07-10T22:07:32.344Z,15.20
2018-07-10T22:10:03.711Z,15.10
2018-07-10T22:12:33.397Z,15.10
2018-07-10T22:15:01.673Z,15.10
2018-07-10T22:17:30.364Z,15.00
2018-07-10T22:19:58.901Z,14.90
2018-07-10T22:22:29.873Z,14.90
2018-07-10T22:24:59.593Z,14.80
2018-07-10T22:27:27.951Z,14.80
2018-07-10T22:30:02.917Z,14.70
2018-07-10T22:32:40.361Z,14.70
2018-07-10T22:35:08.973Z,14.60
2018-07-10T22:37:37.283Z,14.60
2018-07-10T22:40:05.797Z,14.60
2018-07-10T22:42:34.073Z,14.50
2018-07-10T22:45:02.381Z,14.50
2018-07-10T22:47:39.965Z,14.40
2018-07-10T22:50:14.241Z,14.40
2018-07-10T22:52:44.725Z,14.40
2018-07-10T22:55:14.957Z,14.30
2018-07-10T22:57:43.258Z,14.30
2018-07-10T23:00:16.749Z,14.20
2018-07-10T23:02:45.026Z,14.20
2018-07-10T23:05:13.481Z,14.10
2018-07-10T23:07:41.732Z,14.10
2018-07-10T23:10:10.066Z,14.00
2018-07-10T23:12:38.369Z,14.00
2018-07-10T23:17:34.626Z,13.90
2018-07-10T23:20:02.934Z,13.80
2018-07-10T23:22:42.302Z,13.80
2018-07-10T23:25:10.597Z,13.70
2018-07-10T23:30:06.909Z,13.70
2018-07-10T23:32:35.436Z,13.60
2018-07-10T23:35:03.730Z,13.60
2018-07-10T23:37:32.006Z,13.50
2018-07-10T23:40:04.891Z,13.50
2018-07-10T23:42:35.142Z,13.50
2018-07-10T23:45:34.354Z,13.40
2018-07-10T23:48:05.050Z,13.40
2018-07-10T23:50:35.483Z,13.40
2018-07-10T23:54:14.996Z,13.30
2018-07-10T23:56:43.298Z,13.30
2018-07-10T23:59:11.601Z,13.30
